createdAt,value
2023-03-22T00:00:33.869Z,84.10
2023-03-22T00:03:39.202Z,85.11
2023-03-22T00:06:42.035Z,84.79
2023-03-22T00:09:46.569Z,84.53
2023-03-22T00:12:49.252Z,85.20
2023-03-22T00:15:52.257Z,85.10
2023-03-22T00:18:55.204Z,84.54
2023-03-22T00:21:58.063Z,84.85
2023-03-22T00:25:02.235Z,84.63
2023-03-22T00:28:05.394Z,84.21
2023-03-22T00:31:08.352Z,84.83
2023-03-22T00:34:11.663Z,84.92
2023-03-22T00:37:16.374Z,84.50
2023-03-22T00:40:20.859Z,84.97
2023-03-22T00:43:23.571Z,84.90
2023-03-22T00:46:27.283Z,84.40
2023-03-22T00:49:31.206Z,84.57
2023-03-22T00:52:34.566Z,85.11
2023-03-22T00:55:38.674Z,84.17
2023-03-22T00:58:41.663Z,84.61
2023-03-22T01:01:44.823Z,84.09
2023-03-22T01:04:48.286Z,84.05
2023-03-22T01:07:51.715Z,83.94
2023-03-22T01:10:56.017Z,84.46
2023-03-22T01:13:59.693Z,83.88
2023-03-22T01:17:02.752Z,83.93
2023-03-22T01:20:06.951Z,84.62
2023-03-22T01:23:09.822Z,84.39
2023-03-22T01:26:13.933Z,84.94
2023-03-22T01:29:17.211Z,85.24
2023-03-22T01:32:19.880Z,85.17
2023-03-22T01:35:22.759Z,85.02
2023-03-22T01:38:25.824Z,84.94
2023-03-22T01:41:30.079Z,85.02
2023-03-22T01:44:33.422Z,84.78
2023-03-22T01:47:36.655Z,85.26
2023-03-22T01:50:42.566Z,84.48
2023-03-22T01:53:49.966Z,84.46
2023-03-22T01:56:54.264Z,84.45
2023-03-22T01:59:57.490Z,85.54
2023-03-22T02:03:00.813Z,85.56
2023-03-22T02:06:04.126Z,85.27
2023-03-22T02:09:08.115Z,85.19
2023-03-22T02:12:22.025Z,85.65
2023-03-22T02:15:31.025Z,86.46
2023-03-22T02:18:46.957Z,86.14
2023-03-22T02:22:22.904Z,86.26
2023-03-22T02:26:01.011Z,86.23
2023-03-22T02:29:12.733Z,86.22
2023-03-22T02:32:47.377Z,85.92
2023-03-22T02:36:01.664Z,85.34
2023-03-22T02:39:16.682Z,84.60
2023-03-22T02:42:37.274Z,85.76
2023-03-22T02:45:48.419Z,85.18
2023-03-22T02:48:58.402Z,84.71
2023-03-22T02:52:04.248Z,85.42
2023-03-22T02:55:13.075Z,85.23
2023-03-22T02:58:19.145Z,85.20
2023-03-22T03:01:27.886Z,84.70
2023-03-22T03:04:35.563Z,85.26
2023-03-22T03:07:39.775Z,85.16
2023-03-22T03:10:45.069Z,85.17
2023-03-22T03:13:49.192Z,84.68
2023-03-22T03:17:03.621Z,84.37
2023-03-22T03:20:24.651Z,84.94
2023-03-22T03:23:34.806Z,85.13
2023-03-22T03:26:47.232Z,85.58
2023-03-22T03:29:53.676Z,85.13
2023-03-22T03:33:01.055Z,83.83
2023-03-22T03:36:06.322Z,84.13
2023-03-22T03:39:13.720Z,84.46
2023-03-22T03:42:19.411Z,85.01
2023-03-22T03:45:23.208Z,83.69
2023-03-22T03:48:29.591Z,83.88
2023-03-22T03:51:34.530Z,84.09
2023-03-22T03:54:37.719Z,83.62
2023-03-22T03:57:41.912Z,83.94
2023-03-22T04:00:46.108Z,83.51
2023-03-22T04:03:50.673Z,84.56
2023-03-22T04:06:56.882Z,85.00
2023-03-22T04:09:59.657Z,84.88
2023-03-22T04:13:03.744Z,84.86
2023-03-22T04:16:07.453Z,84.14
2023-03-22T04:19:10.320Z,84.45
2023-03-22T04:22:14.913Z,83.21
2023-03-22T04:25:19.016Z,83.58
2023-03-22T04:28:23.905Z,83.84
2023-03-22T04:31:27.046Z,82.88
2023-03-22T04:34:29.890Z,83.10
2023-03-22T04:37:33.820Z,83.19
2023-03-22T04:40:38.791Z,83.22
2023-03-22T04:43:47.146Z,82.91
2023-03-22T04:46:49.979Z,82.23
2023-03-22T04:49:53.022Z,81.34
2023-03-22T04:52:55.774Z,81.84
2023-03-22T04:55:58.893Z,82.46
2023-03-22T04:59:03.514Z,81.75
2023-03-22T05:02:06.350Z,81.61
2023-03-22T05:05:09.309Z,81.81
2023-03-22T05:08:14.391Z,82.14
2023-03-22T05:11:19.414Z,82.51
2023-03-22T05:14:23.652Z,82.56
2023-03-22T05:17:26.543Z,82.58
2023-03-22T05:20:29.382Z,81.89
2023-03-22T05:23:32.202Z,82.30
2023-03-22T05:26:38.001Z,82.59
2023-03-22T05:29:45.205Z,82.47
2023-03-22T05:32:49.533Z,82.22
2023-03-22T05:35:52.579Z,82.17
2023-03-22T05:38:55.512Z,82.14
2023-03-22T05:41:58.233Z,81.15
2023-03-22T05:45:02.444Z,81.59
2023-03-22T05:48:05.410Z,80.84
2023-03-22T05:51:09.352Z,81.13
2023-03-22T05:54:12.158Z,81.26
2023-03-22T05:57:14.902Z,79.84
2023-03-22T06:00:20.303Z,81.59
2023-03-22T06:03:29.816Z,81.01
2023-03-22T06:06:48.186Z,81.53
2023-03-22T06:09:50.940Z,81.39
2023-03-22T06:12:54.234Z,81.28
2023-03-22T06:16:01.479Z,81.06
2023-03-22T06:19:04.372Z,79.98
2023-03-22T06:22:07.343Z,80.55
2023-03-22T06:25:11.848Z,80.14
2023-03-22T06:28:14.740Z,80.61
2023-03-22T06:31:18.891Z,80.60
2023-03-22T06:34:21.624Z,80.61
2023-03-22T06:37:25.014Z,80.83
2023-03-22T06:40:28.034Z,81.00
2023-03-22T06:43:30.829Z,80.41
2023-03-22T06:46:34.923Z,80.02
2023-03-22T06:49:37.682Z,80.19
2023-03-22T06:52:40.558Z,80.21
2023-03-22T06:55:43.305Z,79.26
2023-03-22T06:58:46.193Z,79.47
2023-03-22T07:01:50.391Z,79.70
2023-03-22T07:04:53.215Z,79.16
2023-03-22T07:07:55.979Z,77.99
2023-03-22T07:10:58.886Z,78.43
2023-03-22T07:14:01.609Z,78.22
2023-03-22T07:17:05.865Z,78.41
2023-03-22T07:20:09.912Z,77.46
2023-03-22T07:23:12.825Z,77.17
2023-03-22T07:26:15.786Z,75.34
2023-03-22T07:29:18.475Z,77.54
2023-03-22T07:32:22.609Z,77.18
2023-03-22T07:35:26.959Z,75.41
2023-03-22T07:38:29.806Z,76.01
2023-03-22T07:41:32.768Z,75.69
2023-03-22T07:44:36.966Z,75.56
2023-03-22T07:47:41.682Z,75.48
2023-03-22T07:50:44.510Z,74.17
2023-03-22T07:53:47.229Z,72.79
2023-03-22T07:56:50.282Z,71.41
2023-03-22T07:59:52.980Z,71.29
2023-03-22T08:02:57.198Z,71.95
2023-03-22T08:06:03.761Z,70.97
2023-03-22T08:09:08.343Z,71.35
2023-03-22T08:12:11.193Z,70.92
2023-03-22T08:15:14.116Z,69.37
2023-03-22T08:18:18.360Z,68.99
2023-03-22T08:21:21.297Z,70.34
2023-03-22T08:24:24.147Z,67.96
2023-03-22T08:27:27.327Z,69.95
2023-03-22T08:30:30.185Z,68.05
2023-03-22T08:33:34.608Z,69.44
2023-03-22T08:36:38.533Z,69.53
2023-03-22T08:39:41.715Z,68.40
2023-03-22T08:42:46.413Z,66.77
2023-03-22T08:45:49.270Z,68.46
2023-03-22T08:48:53.853Z,67.39
2023-03-22T08:51:57.601Z,66.11
2023-03-22T08:55:01.104Z,64.77
2023-03-22T08:58:04.686Z,65.62
2023-03-22T09:01:07.817Z,64.82
2023-03-22T09:04:12.023Z,64.69
2023-03-22T09:07:15.093Z,65.56
2023-03-22T09:10:17.983Z,65.29
2023-03-22T09:13:21.333Z,63.92
2023-03-22T09:16:24.353Z,62.97
2023-03-22T09:19:28.990Z,63.80
2023-03-22T09:22:32.110Z,61.99
2023-03-22T09:25:34.901Z,62.60
2023-03-22T09:28:38.215Z,60.99
2023-03-22T09:31:41.113Z,60.36
2023-03-22T09:34:45.695Z,61.38
2023-03-22T09:37:49.642Z,59.93
2023-03-22T09:41:00.447Z,60.67
2023-03-22T09:44:06.522Z,60.10
2023-03-22T09:47:16.506Z,58.04
2023-03-22T09:50:24.312Z,59.26
2023-03-22T09:53:29.237Z,57.64
2023-03-22T09:56:33.144Z,57.54
2023-03-22T09:59:43.674Z,55.61
2023-03-22T10:02:58.999Z,55.27
2023-03-22T10:06:06.136Z,55.01
2023-03-22T10:09:14.984Z,55.02
2023-03-22T10:12:24.654Z,54.94
2023-03-22T10:15:33.195Z,55.46
2023-03-22T10:18:39.333Z,54.39
2023-03-22T10:25:07.115Z,53.39
2023-03-22T10:28:19.584Z,53.75
2023-03-22T10:31:22.705Z,54.42
2023-03-22T10:34:31.130Z,53.28
2023-03-22T10:37:37.562Z,53.20
2023-03-22T10:40:41.535Z,52.37
2023-03-22T10:43:46.845Z,53.35
2023-03-22T10:46:51.973Z,52.36
2023-03-22T10:49:58.290Z,52.03
2023-03-22T10:53:07.199Z,53.10
2023-03-22T10:56:14.053Z,52.98
2023-03-22T10:59:48.339Z,50.66
2023-03-22T11:02:54.195Z,52.36
2023-03-22T11:06:02.840Z,50.36
2023-03-22T11:09:13.627Z,49.34
2023-03-22T11:12:17.102Z,48.62
2023-03-22T11:15:29.940Z,48.32
2023-03-22T11:18:34.764Z,49.33
2023-03-22T11:21:37.469Z,50.03
2023-03-22T11:24:41.774Z,50.53
2023-03-22T11:27:52.128Z,48.81
2023-03-22T11:31:07.261Z,48.52
2023-03-22T11:34:18.398Z,47.42
2023-03-22T11:37:23.058Z,47.26
2023-03-22T11:40:29.302Z,46.10
2023-03-22T11:43:38.499Z,44.92
2023-03-22T11:46:50.341Z,45.39
2023-03-22T11:49:55.344Z,44.50
2023-03-22T11:52:58.501Z,43.42
2023-03-22T11:56:07.575Z,41.72
2023-03-22T11:59:15.266Z,41.44
2023-03-22T12:02:24.554Z,39.82
2023-03-22T12:05:30.057Z,40.12
2023-03-22T12:08:42.654Z,40.46
2023-03-22T12:11:50.675Z,40.54
2023-03-22T12:14:58.438Z,40.82
2023-03-22T12:18:08.165Z,39.44
2023-03-22T12:21:11.917Z,38.59
2023-03-22T12:24:26.796Z,39.62
2023-03-22T12:27:35.267Z,40.09
2023-03-22T12:30:44.051Z,39.82
2023-03-22T12:33:50.261Z,40.02
2023-03-22T12:36:57.107Z,40.11
2023-03-22T12:40:05.728Z,40.26
2023-03-22T12:43:17.011Z,40.29
2023-03-22T12:46:23.740Z,40.05
2023-03-22T12:49:32.520Z,40.58
2023-03-22T12:52:45.771Z,40.84
2023-03-22T12:55:50.626Z,40.85
2023-03-22T12:58:58.348Z,40.49
2023-03-22T13:02:06.081Z,40.80
2023-03-22T13:05:12.235Z,39.90
2023-03-22T13:08:21.873Z,40.09
2023-03-22T13:11:25.561Z,40.64
2023-03-22T13:14:57.823Z,40.96
2023-03-22T13:18:00.567Z,42.22
2023-03-22T13:21:14.945Z,41.69
2023-03-22T13:24:23.695Z,42.67
2023-03-22T13:27:37.839Z,43.01
2023-03-22T13:30:52.711Z,42.66
2023-03-22T13:33:56.594Z,43.11
2023-03-22T13:37:03.686Z,43.02
2023-03-22T13:40:15.202Z,43.42
2023-03-22T13:43:30.333Z,44.09
2023-03-22T13:46:51.517Z,42.16
2023-03-22T13:50:01.346Z,42.71
2023-03-22T13:53:08.072Z,42.20
2023-03-22T13:56:14.378Z,41.93
2023-03-22T13:59:21.838Z,41.38
2023-03-22T14:02:30.148Z,41.53
2023-03-22T14:05:37.410Z,40.30
2023-03-22T14:08:42.900Z,41.32
2023-03-22T14:11:49.981Z,40.38
2023-03-22T14:14:57.995Z,40.84
2023-03-22T14:18:07.364Z,41.30
2023-03-22T14:21:15.344Z,40.67
